Terminal Aerodrome Forecast
Issued by NWS Amarillo, TX

Home | Current Version | Previous Version | Text Only | Print | Product List | Glossary On
Versions: 1 2 3 4 5 6 7 8 9 10 11 12 13 14
000
FTUS44 KAMA 040500
TAFDHT
TAF
KDHT 040520Z 0406/0506 17011KT P6SM BKN100 OVC300
     FM041100 VRB06KT P6SM SCT120 SCT300
     FM041600 14009KT P6SM SCT100 BKN300
     FM041900 16015G24KT P6SM SCT050 BKN100 OVC300
     FM042300 16014G22KT P6SM SCT035 BKN100 OVC300
      TEMPO 0423/0503 4SM TSRA OVC020CB
     FM050300 16011KT 6SM -SHRA OVC015=

USA.gov is the U.S. government's official web portal to all federal, state and local government web resources and services.